Time,TemperatureF,DewpointF,PressureIn,WindDirection,WindDirectionDegrees,WindSpeedMPH,WindSpeedGustMPH,Humidity,HourlyPrecipIn,Conditions,Clouds,dailyrainin,SolarRadiationWatts/m^2,SoftwareType,DateUTC
2017-12-16 00:02:00,33.4,31.1,29.65,SSW,209,0.0,0.0,91,0.00,,,0.00,0.0,meteobridge,2017-12-15 23:02:00,
2017-12-16 00:07:00,33.6,31.3,29.65,SSW,209,0.0,0.0,91,0.00,,,0.00,0.0,meteobridge,2017-12-15 23:07:00,
2017-12-16 00:12:00,33.8,31.5,29.65,SSW,209,0.0,0.0,91,0.00,,,0.00,0.0,meteobridge,2017-12-15 23:12:00,
2017-12-16 00:17:00,34.0,31.6,29.65,SSW,209,0.0,0.0,91,0.00,,,0.00,0.0,meteobridge,2017-12-15 23:17:00,
2017-12-16 00:22:00,34.0,31.6,29.65,SSW,209,0.0,0.0,91,0.00,,,0.00,0.0,meteobridge,2017-12-15 23:22:00,
2017-12-16 00:27:00,34.2,31.8,29.65,SSW,209,0.0,0.0,91,0.00,,,0.00,0.0,meteobridge,2017-12-15 23:27:00,
2017-12-16 00:32:00,34.3,32.2,29.65,SSW,209,0.0,0.0,92,0.00,,,0.00,0.0,meteobridge,2017-12-15 23:32:00,
2017-12-16 00:37:00,34.3,32.2,29.65,SSW,209,0.0,0.0,92,0.00,,,0.00,0.0,meteobridge,2017-12-15 23:37:00,
2017-12-16 00:42:00,34.5,32.4,29.65,SSW,209,0.0,0.0,92,0.00,,,0.00,0.0,meteobridge,2017-12-15 23:42:00,
2017-12-16 00:47:00,34.5,32.4,29.66,SSW,209,0.0,0.0,92,0.00,,,0.00,0.0,meteobridge,2017-12-15 23:47:00,
2017-12-16 00:52:00,34.7,32.5,29.66,SSW,209,0.0,0.0,92,0.00,,,0.00,0.0,meteobridge,2017-12-15 23:52:00,
2017-12-16 00:57:00,34.9,32.7,29.66,SSW,209,0.0,0.0,92,0.00,,,0.00,0.0,meteobridge,2017-12-15 23:57:00,
2017-12-16 01:02:00,35.1,32.9,29.66,SSW,209,0.0,0.0,92,0.00,,,0.00,0.0,meteobridge,2017-12-16 00:02:00,
2017-12-16 01:07:00,35.2,33.1,29.66,SSW,209,0.0,0.0,92,0.00,,,0.00,0.0,meteobridge,2017-12-16 00:07:00,
2017-12-16 01:12:00,35.2,33.1,29.66,SSW,209,0.0,0.0,92,0.00,,,0.00,0.0,meteobridge,2017-12-16 00:12:00,
2017-12-16 01:17:00,35.2,33.1,29.67,SSW,209,0.0,0.0,92,0.00,,,0.00,0.0,meteobridge,2017-12-16 00:17:00,
2017-12-16 01:22:00,35.4,33.3,29.67,NNW,340,8.5,11.0,92,0.00,,,0.00,0.0,meteobridge,2017-12-16 00:22:00,
2017-12-16 01:27:00,37.0,35.2,29.67,NNW,348,3.1,10.0,93,0.00,,,0.00,0.0,meteobridge,2017-12-16 00:27:00,
2017-12-16 01:32:00,37.6,35.8,29.67,NNW,331,4.3,12.0,93,0.00,,,0.00,0.0,meteobridge,2017-12-16 00:32:00,
2017-12-16 01:37:00,37.9,36.1,29.67,NNW,348,2.0,7.0,93,0.01,,,0.01,0.0,meteobridge,2017-12-16 00:37:00,
2017-12-16 01:42:00,38.1,36.3,29.67,NNW,348,1.1,4.0,93,0.02,,,0.02,0.0,meteobridge,2017-12-16 00:42:00,
2017-12-16 01:47:00,38.3,36.5,29.67,North,350,2.0,4.0,93,0.02,,,0.02,0.0,meteobridge,2017-12-16 00:47:00,
2017-12-16 01:52:00,38.5,36.7,29.67,North,353,2.0,6.0,93,0.02,,,0.02,0.0,meteobridge,2017-12-16 00:52:00,
2017-12-16 01:57:00,38.7,36.5,29.68,North,353,2.0,5.0,92,0.02,,,0.02,0.0,meteobridge,2017-12-16 00:57:00,
2017-12-16 02:02:00,38.7,36.5,29.68,North,353,0.0,0.0,92,0.02,,,0.02,0.0,meteobridge,2017-12-16 01:02:00,
2017-12-16 02:07:00,38.5,36.3,29.68,North,353,0.0,0.0,92,0.02,,,0.02,0.0,meteobridge,2017-12-16 01:07:00,
2017-12-16 02:17:00,38.3,36.1,29.68,North,353,0.0,0.0,92,0.02,,,0.02,0.0,meteobridge,2017-12-16 01:17:00,
2017-12-16 02:22:00,37.9,35.8,29.69,North,353,0.0,0.0,92,0.02,,,0.02,0.0,meteobridge,2017-12-16 01:22:00,
2017-12-16 02:27:00,37.9,35.8,29.69,North,353,0.0,0.0,92,0.02,,,0.02,0.0,meteobridge,2017-12-16 01:27:00,
2017-12-16 02:32:00,37.8,35.4,29.70,North,353,0.0,0.0,91,0.02,,,0.02,0.0,meteobridge,2017-12-16 01:32:00,
2017-12-16 02:37:00,37.6,35.2,29.70,North,353,0.0,0.0,91,0.01,,,0.02,0.0,meteobridge,2017-12-16 01:37:00,
2017-12-16 02:42:00,37.2,35.1,29.71,North,350,5.4,6.0,92,0.00,,,0.02,0.0,meteobridge,2017-12-16 01:42:00,
2017-12-16 02:47:00,37.6,35.4,29.71,NNW,336,2.0,6.0,92,0.02,,,0.03,0.0,meteobridge,2017-12-16 01:47:00,
2017-12-16 02:52:00,37.9,35.8,29.70,NNW,347,2.0,7.0,92,0.02,,,0.04,0.0,meteobridge,2017-12-16 01:52:00,
2017-12-16 02:57:00,37.9,35.8,29.71,NNW,347,0.0,0.0,92,0.02,,,0.04,0.0,meteobridge,2017-12-16 01:57:00,
2017-12-16 03:02:00,37.9,35.8,29.71,NNW,347,0.0,0.0,92,0.02,,,0.04,0.0,meteobridge,2017-12-16 02:02:00,
2017-12-16 03:07:00,37.9,35.6,29.71,NNW,347,0.0,0.0,91,0.02,,,0.04,0.0,meteobridge,2017-12-16 02:07:00,
2017-12-16 03:12:00,37.9,35.6,29.71,NNW,347,0.0,0.0,91,0.02,,,0.04,0.0,meteobridge,2017-12-16 02:12:00,
2017-12-16 03:17:00,37.9,35.6,29.72,NNW,347,0.0,0.0,91,0.02,,,0.04,0.0,meteobridge,2017-12-16 02:17:00,
2017-12-16 03:27:00,37.6,35.2,29.72,NNW,347,0.0,0.0,91,0.02,,,0.04,0.0,meteobridge,2017-12-16 02:27:00,
2017-12-16 03:32:00,37.2,34.9,29.72,NNW,347,0.0,0.0,91,0.02,,,0.04,0.0,meteobridge,2017-12-16 02:32:00,
2017-12-16 03:42:00,37.0,34.7,29.72,NNW,347,0.0,0.0,91,0.02,,,0.04,0.0,meteobridge,2017-12-16 02:42:00,
2017-12-16 03:47:00,36.5,34.2,29.73,NNW,347,0.0,0.0,91,0.01,,,0.04,0.0,meteobridge,2017-12-16 02:47:00,
2017-12-16 03:52:00,36.1,33.4,29.73,NNW,347,0.0,0.0,90,0.00,,,0.04,0.0,meteobridge,2017-12-16 02:52:00,
2017-12-16 03:57:00,36.1,33.4,29.73,NNW,347,0.0,0.0,90,0.00,,,0.04,0.0,meteobridge,2017-12-16 02:57:00,
2017-12-16 04:02:00,36.0,33.6,29.74,NNW,347,0.0,0.0,91,0.00,,,0.04,0.0,meteobridge,2017-12-16 03:02:00,
2017-12-16 04:07:00,35.8,33.4,29.74,NNW,347,0.0,0.0,91,0.00,,,0.04,0.0,meteobridge,2017-12-16 03:07:00,
2017-12-16 04:17:00,35.2,32.9,29.74,NNW,347,0.0,0.0,91,0.00,,,0.04,0.0,meteobridge,2017-12-16 03:17:00,
2017-12-16 04:22:00,35.2,32.9,29.74,NNW,347,0.0,0.0,91,0.00,,,0.04,0.0,meteobridge,2017-12-16 03:22:00,
2017-12-16 04:27:00,35.2,32.9,29.74,NNW,347,0.0,0.0,91,0.00,,,0.04,0.0,meteobridge,2017-12-16 03:27:00,
2017-12-16 04:32:00,35.1,32.7,29.74,NNW,347,0.0,0.0,91,0.00,,,0.04,0.0,meteobridge,2017-12-16 03:32:00,
2017-12-16 04:37:00,34.9,32.5,29.74,NNW,347,0.0,0.0,91,0.00,,,0.04,0.0,meteobridge,2017-12-16 03:37:00,
2017-12-16 04:42:00,34.9,32.5,29.74,NNW,347,0.0,0.0,91,0.00,,,0.04,0.0,meteobridge,2017-12-16 03:42:00,
2017-12-16 04:47:00,34.9,32.5,29.74,NNW,347,0.0,0.0,91,0.00,,,0.04,0.0,meteobridge,2017-12-16 03:47:00,
2017-12-16 04:52:00,35.1,32.7,29.75,NNW,347,0.0,0.0,91,0.00,,,0.04,0.0,meteobridge,2017-12-16 03:52:00,
2017-12-16 05:07:00,35.8,33.4,29.75,NNW,347,0.0,3.0,91,0.00,,,0.04,0.0,meteobridge,2017-12-16 04:07:00,
2017-12-16 05:12:00,35.8,33.4,29.76,NNW,347,0.0,0.0,91,0.00,,,0.04,0.0,meteobridge,2017-12-16 04:12:00,
2017-12-16 05:17:00,35.6,33.3,29.76,NNW,347,0.0,0.0,91,0.00,,,0.04,0.0,meteobridge,2017-12-16 04:17:00,
2017-12-16 05:22:00,35.4,33.1,29.76,NNW,347,0.0,0.0,91,0.00,,,0.04,0.0,meteobridge,2017-12-16 04:22:00,
2017-12-16 05:27:00,35.2,32.9,29.76,NNW,347,0.0,0.0,91,0.00,,,0.04,0.0,meteobridge,2017-12-16 04:27:00,
2017-12-16 05:37:00,35.1,32.7,29.76,NNW,347,0.0,0.0,91,0.00,,,0.04,0.0,meteobridge,2017-12-16 04:37:00,
2017-12-16 05:42:00,34.9,32.5,29.77,NNW,347,0.0,0.0,91,0.00,,,0.04,0.0,meteobridge,2017-12-16 04:42:00,
2017-12-16 05:47:00,34.7,32.4,29.77,NNW,347,0.0,0.0,91,0.00,,,0.04,0.0,meteobridge,2017-12-16 04:47:00,
2017-12-16 05:52:00,34.5,32.2,29.77,NNW,347,0.0,0.0,91,0.00,,,0.04,0.0,meteobridge,2017-12-16 04:52:00,
2017-12-16 05:57:00,34.3,32.0,29.77,NNW,347,0.0,0.0,91,0.00,,,0.04,0.0,meteobridge,2017-12-16 04:57:00,
2017-12-16 06:02:00,34.3,32.0,29.77,NNW,347,0.0,0.0,91,0.00,,,0.04,0.0,meteobridge,2017-12-16 05:02:00,
2017-12-16 06:07:00,34.3,32.0,29.78,NNW,347,0.0,0.0,91,0.00,,,0.04,0.0,meteobridge,2017-12-16 05:07:00,
2017-12-16 06:12:00,34.3,32.0,29.78,NNW,347,0.0,0.0,91,0.00,,,0.04,0.0,meteobridge,2017-12-16 05:12:00,
2017-12-16 06:17:00,34.5,32.4,29.78,NNW,347,0.0,0.0,92,0.00,,,0.04,0.0,meteobridge,2017-12-16 05:17:00,
2017-12-16 06:22:00,34.5,32.2,29.78,NNW,347,0.0,0.0,91,0.00,,,0.04,0.0,meteobridge,2017-12-16 05:22:00,
2017-12-16 06:27:00,34.3,32.0,29.78,NNW,347,0.0,0.0,91,0.00,,,0.04,0.0,meteobridge,2017-12-16 05:27:00,
2017-12-16 06:32:00,34.3,32.0,29.78,NNW,347,0.0,0.0,91,0.00,,,0.04,0.0,meteobridge,2017-12-16 05:32:00,
2017-12-16 06:37:00,34.2,31.8,29.78,NNW,347,0.0,0.0,91,0.00,,,0.04,0.0,meteobridge,2017-12-16 05:37:00,
2017-12-16 06:42:00,34.0,31.6,29.78,NNW,347,0.0,0.0,91,0.00,,,0.04,0.0,meteobridge,2017-12-16 05:42:00,
2017-12-16 06:47:00,33.8,31.5,29.79,NNW,347,0.0,0.0,91,0.00,,,0.04,0.0,meteobridge,2017-12-16 05:47:00,
2017-12-16 06:52:00,33.6,31.3,29.80,NNW,347,0.0,0.0,91,0.00,,,0.04,0.0,meteobridge,2017-12-16 05:52:00,
2017-12-16 06:57:00,34.5,32.7,29.80,NNW,344,5.4,5.4,93,0.00,,,0.04,0.0,meteobridge,2017-12-16 05:57:00,
2017-12-16 07:02:00,35.2,33.4,29.80,NNW,344,0.0,0.0,93,0.00,,,0.04,0.0,meteobridge,2017-12-16 06:02:00,
2017-12-16 07:07:00,35.6,33.4,29.80,NNW,344,0.0,0.0,92,0.00,,,0.04,0.0,meteobridge,2017-12-16 06:07:00,
2017-12-16 07:12:00,36.0,33.8,29.80,NNW,344,0.0,0.0,92,0.00,,,0.04,0.0,meteobridge,2017-12-16 06:12:00,
2017-12-16 07:17:00,36.0,33.8,29.80,NNW,344,0.0,0.0,92,0.00,,,0.04,0.0,meteobridge,2017-12-16 06:17:00,
2017-12-16 07:22:00,36.1,34.0,29.80,NNW,344,0.0,0.0,92,0.00,,,0.04,0.0,meteobridge,2017-12-16 06:22:00,
2017-12-16 07:27:00,36.0,33.8,29.81,NNW,344,0.0,0.0,92,0.00,,,0.04,0.0,meteobridge,2017-12-16 06:27:00,
2017-12-16 07:32:00,36.0,33.8,29.81,NNW,344,0.0,0.0,92,0.00,,,0.04,0.0,meteobridge,2017-12-16 06:32:00,
2017-12-16 07:37:00,36.0,33.8,29.81,NNW,344,0.0,0.0,92,0.00,,,0.04,0.0,meteobridge,2017-12-16 06:37:00,
2017-12-16 07:42:00,36.0,33.8,29.81,NNW,344,2.0,3.0,92,0.00,,,0.04,0.0,meteobridge,2017-12-16 06:42:00,
2017-12-16 07:47:00,36.3,34.2,29.82,NNW,344,4.3,5.0,92,0.00,,,0.04,0.0,meteobridge,2017-12-16 06:47:00,
2017-12-16 07:52:00,36.7,34.5,29.82,NNW,344,4.3,5.0,92,0.00,,,0.04,0.0,meteobridge,2017-12-16 06:52:00,
2017-12-16 07:57:00,37.0,34.9,29.82,NNW,343,2.0,6.0,92,0.00,,,0.04,0.0,meteobridge,2017-12-16 06:57:00,
2017-12-16 08:02:00,37.2,35.1,29.82,NNW,343,3.1,6.0,92,0.00,,,0.04,0.0,meteobridge,2017-12-16 07:02:00,
2017-12-16 08:07:00,37.4,35.2,29.83,NNW,334,3.1,6.0,92,0.00,,,0.04,0.0,meteobridge,2017-12-16 07:07:00,
2017-12-16 08:12:00,37.6,35.4,29.82,NNW,331,8.5,11.0,92,0.00,,,0.04,0.0,meteobridge,2017-12-16 07:12:00,
2017-12-16 08:17:00,37.9,35.6,29.83,NW,323,5.4,6.0,91,0.00,,,0.04,0.0,meteobridge,2017-12-16 07:17:00,
2017-12-16 08:22:00,37.9,35.2,29.83,NW,323,5.4,5.4,90,0.00,,,0.04,0.0,meteobridge,2017-12-16 07:22:00,
2017-12-16 08:32:00,37.9,35.1,29.83,NW,323,0.0,0.0,89,0.00,,,0.04,0.0,meteobridge,2017-12-16 07:32:00,
2017-12-16 08:37:00,37.9,35.1,29.83,NW,323,1.1,2.0,89,0.00,,,0.04,0.0,meteobridge,2017-12-16 07:37:00,
2017-12-16 08:42:00,37.9,35.1,29.84,NW,310,3.1,13.0,89,0.00,,,0.04,0.0,meteobridge,2017-12-16 07:42:00,
2017-12-16 08:47:00,38.1,34.9,29.84,NW,312,3.1,3.1,88,0.00,,,0.04,0.0,meteobridge,2017-12-16 07:47:00,
2017-12-16 08:52:00,38.3,35.1,29.85,NW,312,2.0,2.0,88,0.01,,,0.05,0.0,meteobridge,2017-12-16 07:52:00,
2017-12-16 09:02:00,38.1,34.5,29.85,NW,307,1.1,7.0,87,0.05,,,0.09,0.0,meteobridge,2017-12-16 08:02:00,
2017-12-16 09:07:00,38.1,34.9,29.85,NW,326,6.3,13.0,88,0.06,,,0.09,0.0,meteobridge,2017-12-16 08:07:00,
2017-12-16 09:12:00,38.3,35.1,29.85,NW,326,0.0,5.0,88,0.06,,,0.09,5.0,meteobridge,2017-12-16 08:12:00,
2017-12-16 09:17:00,38.3,35.1,29.85,NW,326,0.0,0.0,88,0.06,,,0.09,7.0,meteobridge,2017-12-16 08:17:00,
2017-12-16 09:22:00,38.3,35.1,29.85,NW,326,0.0,0.0,88,0.06,,,0.09,9.0,meteobridge,2017-12-16 08:22:00,
2017-12-16 09:27:00,38.1,34.9,29.85,NW,326,0.0,0.0,88,0.06,,,0.09,9.0,meteobridge,2017-12-16 08:27:00,
2017-12-16 09:37:00,37.9,34.3,29.86,NW,326,0.0,0.0,87,0.06,,,0.09,14.0,meteobridge,2017-12-16 08:37:00,
2017-12-16 09:42:00,37.8,34.5,29.86,NW,326,0.0,0.0,88,0.06,,,0.09,19.0,meteobridge,2017-12-16 08:42:00,
2017-12-16 09:47:00,37.8,34.5,29.87,NW,326,0.0,0.0,88,0.06,,,0.09,62.0,meteobridge,2017-12-16 08:47:00,
2017-12-16 09:52:00,37.8,34.5,29.87,NW,326,0.0,0.0,88,0.05,,,0.09,42.0,meteobridge,2017-12-16 08:52:00,
2017-12-16 09:57:00,37.9,34.7,29.87,NW,317,2.0,6.0,88,0.03,,,0.09,35.0,meteobridge,2017-12-16 08:57:00,
2017-12-16 10:02:00,38.3,35.4,29.88,NNW,333,3.1,13.0,89,0.01,,,0.09,23.0,meteobridge,2017-12-16 09:02:00,
2017-12-16 10:07:00,38.7,35.4,29.88,NNW,327,5.4,10.0,88,0.01,,,0.10,14.0,meteobridge,2017-12-16 09:07:00,
2017-12-16 10:12:00,38.7,35.4,29.88,NNW,327,6.3,6.3,88,0.01,,,0.10,19.0,meteobridge,2017-12-16 09:12:00,
2017-12-16 10:17:00,38.7,35.4,29.89,NNW,327,0.0,0.0,88,0.01,,,0.10,32.0,meteobridge,2017-12-16 09:17:00,
2017-12-16 10:22:00,38.7,35.4,29.89,NNW,327,4.3,4.3,88,0.01,,,0.10,41.0,meteobridge,2017-12-16 09:22:00,
2017-12-16 10:27:00,38.8,35.6,29.89,NNW,327,6.3,6.3,88,0.01,,,0.10,63.0,meteobridge,2017-12-16 09:27:00,
2017-12-16 10:32:00,39.0,35.8,29.89,NNW,327,2.0,5.0,88,0.01,,,0.10,109.0,meteobridge,2017-12-16 09:32:00,
2017-12-16 10:37:00,39.6,36.3,29.89,NNW,327,0.0,0.0,88,0.01,,,0.10,134.0,meteobridge,2017-12-16 09:37:00,
2017-12-16 10:42:00,39.9,36.7,29.90,NNW,327,10.5,17.0,88,0.01,,,0.10,27.0,meteobridge,2017-12-16 09:42:00,
2017-12-16 10:47:00,40.1,36.9,29.90,NW,313,5.4,6.0,88,0.02,,,0.11,18.0,meteobridge,2017-12-16 09:47:00,
2017-12-16 10:52:00,40.1,36.5,29.90,NW,313,0.0,0.0,87,0.02,,,0.11,19.0,meteobridge,2017-12-16 09:52:00,
2017-12-16 10:57:00,40.1,36.5,29.90,NW,313,0.0,0.0,87,0.02,,,0.11,28.0,meteobridge,2017-12-16 09:57:00,
2017-12-16 11:02:00,39.9,36.3,29.90,NW,313,2.0,4.0,87,0.02,,,0.11,35.0,meteobridge,2017-12-16 10:02:00,
2017-12-16 11:07:00,39.7,36.1,29.91,NW,313,0.0,0.0,87,0.01,,,0.11,199.0,meteobridge,2017-12-16 10:07:00,
2017-12-16 11:12:00,39.9,36.7,29.91,NW,309,4.3,10.0,88,0.01,,,0.11,100.0,meteobridge,2017-12-16 10:12:00,
2017-12-16 11:17:00,40.1,36.5,29.91,WNW,300,5.4,10.0,87,0.01,,,0.12,27.0,meteobridge,2017-12-16 10:17:00,
2017-12-16 11:22:00,39.9,36.3,29.91,WNW,302,1.1,6.0,87,0.02,,,0.12,39.0,meteobridge,2017-12-16 10:22:00,
2017-12-16 11:27:00,39.9,36.3,29.91,WNW,302,0.0,0.0,87,0.02,,,0.12,69.0,meteobridge,2017-12-16 10:27:00,
2017-12-16 11:32:00,39.9,36.3,29.91,WNW,302,4.3,4.3,87,0.02,,,0.12,109.0,meteobridge,2017-12-16 10:32:00,
2017-12-16 11:37:00,39.9,36.1,29.92,WNW,302,0.0,6.0,86,0.02,,,0.12,46.0,meteobridge,2017-12-16 10:37:00,
2017-12-16 11:42:00,39.9,36.1,29.92,WNW,299,6.3,7.0,86,0.02,,,0.13,23.0,meteobridge,2017-12-16 10:42:00,
2017-12-16 11:47:00,39.7,36.0,29.92,WNW,300,1.1,6.0,86,0.02,,,0.13,27.0,meteobridge,2017-12-16 10:47:00,
2017-12-16 11:52:00,39.7,36.1,29.92,WNW,300,2.0,7.0,87,0.02,,,0.13,49.0,meteobridge,2017-12-16 10:52:00,
2017-12-16 11:57:00,39.7,36.1,29.92,WNW,300,0.0,0.0,87,0.02,,,0.13,118.0,meteobridge,2017-12-16 10:57:00,
2017-12-16 12:02:00,39.9,36.3,29.91,WNW,300,6.3,6.3,87,0.02,,,0.13,78.0,meteobridge,2017-12-16 11:02:00,
2017-12-16 12:07:00,40.1,36.5,29.91,WNW,300,0.0,0.0,87,0.02,,,0.13,74.0,meteobridge,2017-12-16 11:07:00,
2017-12-16 12:12:00,40.3,36.7,29.92,WNW,300,2.0,6.0,87,0.02,,,0.13,165.0,meteobridge,2017-12-16 11:12:00,
2017-12-16 12:17:00,40.5,36.9,29.92,WNW,300,0.0,0.0,87,0.02,,,0.13,35.0,meteobridge,2017-12-16 11:17:00,
2017-12-16 12:22:00,40.5,36.9,29.92,WNW,300,0.0,0.0,87,0.02,,,0.14,34.0,meteobridge,2017-12-16 11:22:00,
2017-12-16 12:32:00,40.5,36.7,29.92,WNW,300,0.0,0.0,86,0.02,,,0.14,37.0,meteobridge,2017-12-16 11:32:00,
2017-12-16 12:37:00,40.5,36.7,29.92,WNW,300,0.0,0.0,86,0.02,,,0.14,95.0,meteobridge,2017-12-16 11:37:00,
2017-12-16 12:42:00,40.5,36.7,29.92,WNW,300,0.0,0.0,86,0.02,,,0.14,74.0,meteobridge,2017-12-16 11:42:00,
2017-12-16 12:47:00,40.6,37.0,29.92,WNW,300,2.0,5.0,87,0.01,,,0.14,28.0,meteobridge,2017-12-16 11:47:00,
2017-12-16 12:52:00,40.8,37.0,29.92,WNW,296,9.6,10.0,86,0.01,,,0.14,46.0,meteobridge,2017-12-16 11:52:00,
2017-12-16 12:57:00,40.6,36.9,29.93,NW,326,2.0,9.0,86,0.02,,,0.15,39.0,meteobridge,2017-12-16 11:57:00,
2017-12-16 13:02:00,40.5,36.7,29.93,NW,321,6.3,6.3,86,0.02,,,0.15,28.0,meteobridge,2017-12-16 12:02:00,
2017-12-16 13:07:00,40.3,36.5,29.93,NW,312,5.4,11.0,86,0.02,,,0.16,11.0,meteobridge,2017-12-16 12:07:00,
2017-12-16 13:12:00,40.1,36.0,29.93,NW,316,1.1,17.0,85,0.02,,,0.16,37.0,meteobridge,2017-12-16 12:12:00,
2017-12-16 13:17:00,39.9,35.8,29.92,WNW,303,1.1,7.0,85,0.02,,,0.16,55.0,meteobridge,2017-12-16 12:17:00,
2017-12-16 13:22:00,39.6,35.1,29.93,NW,305,2.0,6.0,84,0.02,,,0.16,60.0,meteobridge,2017-12-16 12:22:00,
2017-12-16 13:27:00,39.6,35.1,29.93,NW,305,2.0,5.0,84,0.02,,,0.16,27.0,meteobridge,2017-12-16 12:27:00,
2017-12-16 13:32:00,39.6,34.9,29.93,WNW,290,3.1,10.0,83,0.02,,,0.16,34.0,meteobridge,2017-12-16 12:32:00,
2017-12-16 13:37:00,39.6,34.9,29.93,West,275,6.3,10.0,83,0.02,,,0.16,48.0,meteobridge,2017-12-16 12:37:00,
2017-12-16 13:42:00,39.6,35.1,29.93,WNW,296,3.1,6.0,84,0.02,,,0.16,41.0,meteobridge,2017-12-16 12:42:00,
2017-12-16 13:47:00,39.4,34.9,29.93,WNW,296,2.0,5.0,84,0.02,,,0.16,39.0,meteobridge,2017-12-16 12:47:00,
2017-12-16 13:52:00,39.4,34.9,29.93,WNW,296,1.1,5.0,84,0.02,,,0.16,53.0,meteobridge,2017-12-16 12:52:00,
2017-12-16 13:57:00,39.4,35.2,29.93,WNW,295,6.3,6.3,85,0.01,,,0.16,109.0,meteobridge,2017-12-16 12:57:00,
2017-12-16 14:07:00,39.7,36.0,29.93,NW,310,1.1,2.0,86,0.01,,,0.17,25.0,meteobridge,2017-12-16 13:07:00,
2017-12-16 14:12:00,39.7,36.0,29.93,NW,314,4.3,13.0,86,0.02,,,0.17,16.0,meteobridge,2017-12-16 13:12:00,
2017-12-16 14:17:00,39.9,36.1,29.93,NW,314,3.1,5.0,86,0.02,,,0.17,76.0,meteobridge,2017-12-16 13:17:00,
2017-12-16 14:22:00,40.3,36.7,29.93,NW,313,3.1,4.0,87,0.02,,,0.17,136.0,meteobridge,2017-12-16 13:22:00,
2017-12-16 14:27:00,40.6,37.0,29.94,NW,305,2.0,13.0,87,0.02,,,0.17,62.0,meteobridge,2017-12-16 13:27:00,
2017-12-16 14:32:00,41.2,37.6,29.94,NW,307,3.1,9.0,87,0.02,,,0.17,48.0,meteobridge,2017-12-16 13:32:00,
2017-12-16 14:37:00,41.4,37.8,29.94,NW,305,6.3,11.0,87,0.02,,,0.17,62.0,meteobridge,2017-12-16 13:37:00,
2017-12-16 14:42:00,41.4,37.8,29.94,WNW,292,5.4,12.0,87,0.02,,,0.17,194.0,meteobridge,2017-12-16 13:42:00,
2017-12-16 14:47:00,41.7,37.8,29.94,NNW,336,6.3,6.3,86,0.04,,,0.20,104.0,meteobridge,2017-12-16 13:47:00,
2017-12-16 14:52:00,41.7,37.8,29.95,NW,320,12.8,24.0,86,0.05,,,0.20,46.0,meteobridge,2017-12-16 13:52:00,
2017-12-16 14:57:00,41.4,37.6,29.95,NW,319,4.3,5.0,86,0.06,,,0.21,41.0,meteobridge,2017-12-16 13:57:00,
2017-12-16 15:02:00,41.2,37.4,29.95,NW,320,7.4,11.0,86,0.05,,,0.21,28.0,meteobridge,2017-12-16 14:02:00,
2017-12-16 15:07:00,41.0,37.2,29.95,NW,319,8.5,15.0,86,0.05,,,0.21,35.0,meteobridge,2017-12-16 14:07:00,
2017-12-16 15:12:00,40.6,36.5,29.96,NNW,333,4.3,14.0,85,0.04,,,0.21,42.0,meteobridge,2017-12-16 14:12:00,
2017-12-16 15:17:00,40.5,36.0,29.96,NNW,338,8.5,14.0,84,0.04,,,0.21,55.0,meteobridge,2017-12-16 14:17:00,
2017-12-16 15:22:00,40.3,35.8,29.96,North,351,1.1,10.0,84,0.05,,,0.22,56.0,meteobridge,2017-12-16 14:22:00,
2017-12-16 15:27:00,40.1,35.6,29.96,NNW,334,4.3,11.0,84,0.05,,,0.22,76.0,meteobridge,2017-12-16 14:27:00,
2017-12-16 15:32:00,40.1,35.6,29.96,NW,317,5.4,10.0,84,0.05,,,0.22,78.0,meteobridge,2017-12-16 14:32:00,
2017-12-16 15:37:00,40.3,36.1,29.96,NW,317,0.0,1.0,85,0.05,,,0.22,48.0,meteobridge,2017-12-16 14:37:00,
2017-12-16 15:42:00,40.5,36.3,29.96,WNW,300,11.6,12.0,85,0.05,,,0.22,35.0,meteobridge,2017-12-16 14:42:00,
2017-12-16 15:47:00,40.5,36.3,29.96,WNW,302,0.0,11.0,85,0.02,,,0.22,25.0,meteobridge,2017-12-16 14:47:00,
2017-12-16 15:57:00,40.5,36.7,29.97,NW,305,0.0,1.0,86,0.01,,,0.22,11.0,meteobridge,2017-12-16 14:57:00,
2017-12-16 16:02:00,40.5,36.7,29.97,NW,305,0.0,1.0,86,0.01,,,0.22,7.0,meteobridge,2017-12-16 15:02:00,
2017-12-16 16:07:00,40.3,36.5,29.97,NW,305,1.1,2.0,86,0.01,,,0.22,5.0,meteobridge,2017-12-16 15:07:00,
2017-12-16 16:12:00,40.1,36.3,29.97,NW,305,1.1,1.1,86,0.01,,,0.22,5.0,meteobridge,2017-12-16 15:12:00,
2017-12-16 16:17:00,40.1,36.3,29.97,NW,305,1.1,1.1,86,0.01,,,0.22,5.0,meteobridge,2017-12-16 15:17:00,
2017-12-16 16:22:00,39.9,36.1,29.97,NW,305,7.4,7.4,86,0.00,,,0.22,0.0,meteobridge,2017-12-16 15:22:00,
2017-12-16 16:27:00,39.9,36.1,29.98,WNW,302,0.0,1.0,86,0.00,,,0.22,0.0,meteobridge,2017-12-16 15:27:00,
2017-12-16 16:32:00,39.9,36.1,29.98,WNW,302,1.1,1.1,86,0.00,,,0.22,0.0,meteobridge,2017-12-16 15:32:00,
2017-12-16 16:37:00,39.7,36.0,29.98,NW,306,8.5,19.0,86,0.00,,,0.23,0.0,meteobridge,2017-12-16 15:37:00,
2017-12-16 16:42:00,39.7,35.6,29.98,NW,320,0.0,1.0,85,0.02,,,0.24,0.0,meteobridge,2017-12-16 15:42:00,
2017-12-16 16:52:00,39.6,35.8,29.98,NW,314,0.0,9.0,86,0.02,,,0.24,0.0,meteobridge,2017-12-16 15:52:00,
2017-12-16 16:57:00,39.6,35.8,29.98,NW,314,1.1,1.1,86,0.02,,,0.24,0.0,meteobridge,2017-12-16 15:57:00,
2017-12-16 17:02:00,39.6,35.8,29.99,NW,314,0.0,1.0,86,0.02,,,0.24,0.0,meteobridge,2017-12-16 16:02:00,
2017-12-16 17:07:00,39.6,35.8,29.99,NW,313,0.0,1.0,86,0.02,,,0.24,0.0,meteobridge,2017-12-16 16:07:00,
2017-12-16 17:12:00,39.6,35.8,29.99,NW,313,0.0,1.0,86,0.02,,,0.24,0.0,meteobridge,2017-12-16 16:12:00,
2017-12-16 17:17:00,39.6,35.8,29.99,NW,313,0.0,1.0,86,0.02,,,0.24,0.0,meteobridge,2017-12-16 16:17:00,
2017-12-16 17:22:00,39.7,36.0,29.99,NW,313,1.1,1.1,86,0.02,,,0.24,0.0,meteobridge,2017-12-16 16:22:00,
2017-12-16 17:27:00,39.7,36.0,29.99,NW,313,0.0,1.0,86,0.02,,,0.24,0.0,meteobridge,2017-12-16 16:27:00,
2017-12-16 17:32:00,39.7,36.0,29.99,NW,313,0.0,1.0,86,0.02,,,0.24,0.0,meteobridge,2017-12-16 16:32:00,
2017-12-16 17:37:00,39.7,36.0,29.99,NW,313,0.0,1.0,86,0.02,,,0.24,0.0,meteobridge,2017-12-16 16:37:00,
2017-12-16 17:47:00,39.7,36.0,29.99,WNW,288,1.1,2.0,86,0.01,,,0.24,0.0,meteobridge,2017-12-16 16:47:00,
2017-12-16 17:57:00,39.9,35.8,30.00,WNW,286,1.1,2.0,85,0.01,,,0.24,0.0,meteobridge,2017-12-16 16:57:00,
2017-12-16 18:02:00,39.9,35.4,30.00,WNW,282,2.0,3.0,84,0.02,,,0.25,0.0,meteobridge,2017-12-16 17:02:00,
2017-12-16 18:07:00,39.9,35.4,30.00,West,281,0.0,4.0,84,0.02,,,0.25,0.0,meteobridge,2017-12-16 17:07:00,
2017-12-16 18:12:00,39.9,35.4,30.00,West,281,1.1,1.1,84,0.01,,,0.25,0.0,meteobridge,2017-12-16 17:12:00,
2017-12-16 18:17:00,39.7,35.2,30.00,West,281,0.0,1.0,84,0.01,,,0.25,0.0,meteobridge,2017-12-16 17:17:00,
2017-12-16 18:22:00,39.6,35.1,30.01,West,279,1.1,2.0,84,0.01,,,0.25,0.0,meteobridge,2017-12-16 17:22:00,
2017-12-16 18:27:00,39.6,35.1,30.01,West,279,0.0,2.0,84,0.01,,,0.25,0.0,meteobridge,2017-12-16 17:27:00,
2017-12-16 18:32:00,39.6,35.1,30.01,West,281,2.0,3.0,84,0.01,,,0.25,0.0,meteobridge,2017-12-16 17:32:00,
2017-12-16 18:37:00,39.4,34.7,30.01,West,281,0.0,3.0,83,0.01,,,0.25,0.0,meteobridge,2017-12-16 17:37:00,
2017-12-16 18:42:00,39.2,34.5,30.01,West,281,1.1,1.1,83,0.01,,,0.25,0.0,meteobridge,2017-12-16 17:42:00,
2017-12-16 18:47:00,39.0,34.3,30.01,West,281,1.1,1.1,83,0.01,,,0.25,0.0,meteobridge,2017-12-16 17:47:00,
2017-12-16 18:52:00,38.8,34.2,30.02,West,281,0.0,1.0,83,0.01,,,0.25,0.0,meteobridge,2017-12-16 17:52:00,
2017-12-16 18:57:00,38.8,34.3,30.02,West,281,0.0,1.0,84,0.01,,,0.25,0.0,meteobridge,2017-12-16 17:57:00,
2017-12-16 19:02:00,38.8,34.3,30.02,West,281,0.0,1.0,84,0.00,,,0.25,0.0,meteobridge,2017-12-16 18:02:00,
2017-12-16 19:07:00,38.7,34.2,30.02,West,281,0.0,2.0,84,0.00,,,0.25,0.0,meteobridge,2017-12-16 18:07:00,
2017-12-16 19:12:00,38.8,34.3,30.02,WNW,282,2.0,4.0,84,0.00,,,0.25,0.0,meteobridge,2017-12-16 18:12:00,
2017-12-16 19:17:00,38.8,34.3,30.02,WNW,282,0.0,2.0,84,0.00,,,0.25,0.0,meteobridge,2017-12-16 18:17:00,
2017-12-16 19:22:00,38.8,34.2,30.03,WNW,282,1.1,3.0,83,0.00,,,0.25,0.0,meteobridge,2017-12-16 18:22:00,
2017-12-16 19:27:00,38.8,34.2,30.03,WNW,282,1.1,4.0,83,0.00,,,0.25,0.0,meteobridge,2017-12-16 18:27:00,
2017-12-16 19:32:00,38.8,33.8,30.03,WNW,282,1.1,2.0,82,0.00,,,0.25,0.0,meteobridge,2017-12-16 18:32:00,
2017-12-16 19:37:00,38.8,33.8,30.03,WNW,282,1.1,1.1,82,0.00,,,0.25,0.0,meteobridge,2017-12-16 18:37:00,
2017-12-16 19:42:00,38.7,33.6,30.03,WNW,282,2.0,3.0,82,0.00,,,0.25,0.0,meteobridge,2017-12-16 18:42:00,
2017-12-16 19:47:00,38.7,33.6,30.04,WNW,282,1.1,4.0,82,0.00,,,0.25,0.0,meteobridge,2017-12-16 18:47:00,
2017-12-16 19:52:00,38.5,33.4,30.04,WNW,282,0.0,2.0,82,0.00,,,0.25,0.0,meteobridge,2017-12-16 18:52:00,
2017-12-16 19:57:00,38.3,33.3,30.04,WNW,282,0.0,1.0,82,0.00,,,0.25,0.0,meteobridge,2017-12-16 18:57:00,
2017-12-16 20:02:00,38.1,33.1,30.04,WNW,282,1.1,3.0,82,0.00,,,0.25,0.0,meteobridge,2017-12-16 19:02:00,
2017-12-16 20:07:00,37.9,32.9,30.04,WNW,282,0.0,2.0,82,0.00,,,0.25,0.0,meteobridge,2017-12-16 19:07:00,
2017-12-16 20:12:00,37.9,32.9,30.05,WNW,282,1.1,2.0,82,0.00,,,0.25,0.0,meteobridge,2017-12-16 19:12:00,
2017-12-16 20:17:00,37.9,32.9,30.05,WNW,282,1.1,1.1,82,0.00,,,0.25,0.0,meteobridge,2017-12-16 19:17:00,